Time;durP1;ratioP1;P1;durP2;ratioP2;P2;SDS_P1;SDS_P2;PMS_P1;PMS_P2;Temp;Humidity;BMP_temperature;BMP_pressure;BME280_temperature;BME280_humidity;BME280_pressure;Samples;Min_cycle;Max_cycle;Signal;HPM_P1;HPM_P2
2022/11/01 00:01:52;;;;;;;181.05;32.22;;;;;;;;;;5049136;28;20021;-66
2022/11/01 00:04:18;;;;;;;170.82;33.75;;;;;;;;;;5052411;28;20021;-65
2022/11/01 00:06:44;;;;;;;165.68;33.28;;;;;;;;;;5052968;28;20033;-66
2022/11/01 00:09:09;;;;;;;192.32;35.78;;;;;;;;;;5052898;28;20370;-66
2022/11/01 00:11:35;;;;;;;189.98;33.83;;;;;;;;;;5053040;28;20486;-71
2022/11/01 00:14:01;;;;;;;250.05;40.58;;;;;;;;;;5052187;28;20037;-66
2022/11/01 00:16:26;;;;;;;191.15;32.05;;;;;;;;;;5052692;28;20032;-70
2022/11/01 00:18:52;;;;;;;183.32;32.67;;;;;;;;;;5052462;28;20070;-71
2022/11/01 00:21:18;;;;;;;152.38;34.20;;;;;;;;;;5051997;28;20021;-66
2022/11/01 00:23:44;;;;;;;176.52;35.60;;;;;;;;;;5052131;28;20021;-74
2022/11/01 00:26:21;;;;;;;160.93;33.83;;;;;;;;;;5052372;28;20044;-68
2022/11/01 00:28:47;;;;;;;139.38;31.23;;;;;;;;;;5050003;28;20029;-67
2022/11/01 00:31:14;;;;;;;132.93;30.92;;;;;;;;;;5052368;28;20025;-66
2022/11/01 00:33:39;;;;;;;125.90;30.33;;;;;;;;;;5052327;28;20043;-66
2022/11/01 00:36:06;;;;;;;112.60;30.42;;;;;;;;;;5052341;28;20467;-66
2022/11/01 00:38:32;;;;;;;100.57;29.75;;;;;;;;;;5051569;28;20112;-66
2022/11/01 00:40:58;;;;;;;117.47;30.35;;;;;;;;;;5051310;28;20055;-66
2022/11/01 00:43:23;;;;;;;101.78;27.67;;;;;;;;;;5051271;28;20036;-66
2022/11/01 00:45:49;;;;;;;116.13;28.05;;;;;;;;;;5050001;28;20098;-66
2022/11/01 00:48:15;;;;;;;104.38;29.80;;;;;;;;;;5051134;28;20024;-66
2022/11/01 00:50:40;;;;;;;105.93;31.05;;;;;;;;;;5051115;28;20031;-66
2022/11/01 00:53:09;;;;;;;104.38;30.42;;;;;;;;;;5051196;28;20025;-66
2022/11/01 00:55:35;;;;;;;103.28;30.88;;;;;;;;;;5051112;28;20091;-65
2022/11/01 00:58:00;;;;;;;121.50;30.08;;;;;;;;;;5051728;28;20466;-65
2022/11/01 01:00:26;;;;;;;151.23;31.65;;;;;;;;;;5052584;28;20108;-66
2022/11/01 01:02:51;;;;;;;100.43;29.73;;;;;;;;;;5052518;28;20033;-65
2022/11/01 01:05:17;;;;;;;104.60;29.48;;;;;;;;;;5052400;28;20021;-69
2022/11/01 01:07:42;;;;;;;86.60;28.80;;;;;;;;;;5052128;28;20040;-66
2022/11/01 01:10:08;;;;;;;82.68;27.08;;;;;;;;;;5052483;28;20025;-66
2022/11/01 01:12:33;;;;;;;86.00;27.92;;;;;;;;;;5052362;28;20109;-65
2022/11/01 01:15:00;;;;;;;79.45;27.05;;;;;;;;;;5052250;28;20033;-66
2022/11/01 01:17:25;;;;;;;74.50;26.77;;;;;;;;;;5052381;28;20367;-66
2022/11/01 01:19:51;;;;;;;73.13;25.27;;;;;;;;;;5052527;28;20104;-66
2022/11/01 01:22:16;;;;;;;76.30;26.00;;;;;;;;;;5052123;28;20493;-65
2022/11/01 01:24:46;;;;;;;67.15;26.48;;;;;;;;;;5054551;28;20378;-66
2022/11/01 01:27:13;;;;;;;85.78;26.75;;;;;;;;;;5056097;28;20064;-75
2022/11/01 01:29:42;;;;;;;85.82;26.25;;;;;;;;;;5055989;28;20025;-66
2022/11/01 01:32:10;;;;;;;125.88;28.83;;;;;;;;;;5056145;28;20140;-66
2022/11/01 01:34:36;;;;;;;105.97;28.00;;;;;;;;;;5046480;28;20029;-65
2022/11/01 01:37:01;;;;;;;124.35;31.45;;;;;;;;;;5042236;28;20028;-66
2022/11/01 01:39:27;;;;;;;112.82;30.08;;;;;;;;;;5036123;28;20479;-66
2022/11/01 01:41:55;;;;;;;115.35;30.08;;;;;;;;;;5036039;28;20029;-65
2022/11/01 01:45:06;;;;;;;133.45;31.48;;;;;;;;;;5035919;28;20061;-66
2022/11/01 01:47:35;;;;;;;119.60;33.95;;;;;;;;;;5035658;28;20112;-65
2022/11/01 01:50:15;;;;;;;111.10;32.63;;;;;;;;;;5035834;28;20359;-65
2022/11/01 01:52:51;;;;;;;113.20;31.20;;;;;;;;;;5035713;28;20022;-65
2022/11/01 01:55:22;;;;;;;103.55;31.00;;;;;;;;;;5035930;28;20025;-66
2022/11/01 01:57:49;;;;;;;111.65;33.50;;;;;;;;;;5035802;28;20034;-65
2022/11/01 02:00:15;;;;;;;94.03;33.05;;;;;;;;;;5035714;28;20075;-65
2022/11/01 02:02:41;;;;;;;96.38;31.60;;;;;;;;;;5035722;28;20021;-67
2022/11/01 02:05:11;;;;;;;117.90;33.95;;;;;;;;;;5035752;28;20099;-65
2022/11/01 02:07:37;;;;;;;111.18;34.08;;;;;;;;;;5035571;28;20021;-66
2022/11/01 02:10:03;;;;;;;119.13;34.05;;;;;;;;;;5035426;28;20031;-65
2022/11/01 02:12:34;;;;;;;142.20;40.35;;;;;;;;;;5035496;28;20030;-66
2022/11/01 02:15:00;;;;;;;121.22;35.88;;;;;;;;;;5035544;28;20382;-66
2022/11/01 02:17:31;;;;;;;147.98;38.45;;;;;;;;;;5035464;28;20018;-67
2022/11/01 02:20:34;;;;;;;110.15;33.28;;;;;;;;;;5035120;28;20025;-66
2022/11/01 02:23:35;;;;;;;103.20;33.70;;;;;;;;;;5035477;28;20033;-65
2022/11/01 02:26:22;;;;;;;126.45;35.53;;;;;;;;;;5035322;28;20120;-66
2022/11/01 02:29:18;;;;;;;153.73;37.25;;;;;;;;;;5050182;28;20070;-66
2022/11/01 02:31:52;;;;;;;103.05;32.42;;;;;;;;;;5054978;28;20048;-65
2022/11/01 02:34:42;;;;;;;108.20;35.63;;;;;;;;;;5054711;28;20029;-65
2022/11/01 02:37:20;;;;;;;142.27;37.63;;;;;;;;;;5054412;28;20494;-66
2022/11/01 02:39:54;;;;;;;123.95;34.67;;;;;;;;;;5054968;28;20079;-65
2022/11/01 02:42:22;;;;;;;134.60;35.40;;;;;;;;;;5054846;28;20036;-65
2022/11/01 02:44:57;;;;;;;134.85;36.22;;;;;;;;;;5054848;28;20029;-70
2022/11/01 02:47:25;;;;;;;144.82;38.10;;;;;;;;;;5054608;28;20049;-65
2022/11/01 02:49:53;;;;;;;133.93;35.03;;;;;;;;;;5054388;28;20085;-65
2022/11/01 02:52:24;;;;;;;127.22;34.20;;;;;;;;;;5054612;28;20036;-65
2022/11/01 02:54:58;;;;;;;131.70;32.70;;;;;;;;;;5054735;28;20029;-65
2022/11/01 02:57:38;;;;;;;94.72;29.77;;;;;;;;;;5054602;28;20032;-65
2022/11/01 03:00:18;;;;;;;;;;;;;;;;;;5054938;28;20021;-65
2022/11/01 03:02:44;;;;;;;85.82;28.55;;;;;;;;;;5054471;28;19920;-65
2022/11/01 03:05:36;;;;;;;64.70;23.88;;;;;;;;;;5054320;28;20041;-65
2022/11/01 03:08:08;;;;;;;82.88;29.45;;;;;;;;;;5054279;28;20029;-65
2022/11/01 03:10:51;;;;;;;87.78;29.73;;;;;;;;;;5054205;28;20025;-66
2022/11/01 03:13:55;;;;;;;67.10;25.45;;;;;;;;;;5054461;28;20021;-66
2022/11/01 03:16:28;;;;;;;62.03;25.60;;;;;;;;;;5054157;28;20029;-65
2022/11/01 03:19:05;;;;;;;83.25;28.77;;;;;;;;;;5053971;28;20503;-66
2022/11/01 03:21:40;;;;;;;78.78;27.27;;;;;;;;;;5054156;28;20025;-65
2022/11/01 03:24:36;;;;;;;62.88;25.27;;;;;;;;;;5054053;28;20378;-66
2022/11/01 03:27:32;;;;;;;56.45;24.10;;;;;;;;;;5053366;28;20043;-65
2022/11/01 03:30:03;;;;;;;68.00;27.98;;;;;;;;;;5053543;28;20406;-66
2022/11/01 03:32:30;;;;;;;;;;;;;;;;;;5054235;28;20025;-65
2022/11/01 03:34:59;;;;;;;50.58;22.05;;;;;;;;;;5053876;28;19919;-66
2022/11/01 03:37:27;;;;;;;49.95;23.17;;;;;;;;;;5053863;28;20025;-65
2022/11/01 03:39:54;;;;;;;52.60;24.85;;;;;;;;;;5053824;28;20029;-65
2022/11/01 03:42:22;;;;;;;52.05;22.63;;;;;;;;;;5053823;28;20066;-66
2022/11/01 03:45:03;;;;;;;54.72;24.58;;;;;;;;;;5053737;28;20024;-66
2022/11/01 03:47:29;;;;;;;53.10;25.02;;;;;;;;;;5052268;28;20402;-65
2022/11/01 03:50:18;;;;;;;47.55;23.35;;;;;;;;;;5052175;28;20494;-67
2022/11/01 03:52:44;;;;;;;44.42;21.63;;;;;;;;;;5053598;28;20037;-67
2022/11/01 03:55:19;;;;;;;46.72;22.65;;;;;;;;;;5053587;28;20383;-68
2022/11/01 03:57:52;;;;;;;48.13;24.40;;;;;;;;;;5053670;28;20025;-67
2022/11/01 04:00:21;;;;;;;45.67;23.17;;;;;;;;;;5053476;28;20025;-67
2022/11/01 04:02:47;;;;;;;53.22;26.10;;;;;;;;;;5053252;28;20374;-67
2022/11/01 04:05:13;;;;;;;54.22;26.27;;;;;;;;;;5053084;28;20496;-67
2022/11/01 04:07:39;;;;;;;55.00;25.60;;;;;;;;;;5053199;28;20041;-67
2022/11/01 04:10:05;;;;;;;48.05;24.60;;;;;;;;;;5053345;28;20033;-67
2022/11/01 04:12:31;;;;;;;49.97;24.40;;;;;;;;;;5053138;28;20110;-67
2022/11/01 04:20:33;;;;;;;46.45;22.77;;;;;;;;;;5053147;28;20489;-67
2022/11/01 04:23:00;;;;;;;48.25;23.95;;;;;;;;;;5052986;28;20393;-67
2022/11/01 04:25:25;;;;;;;41.22;21.40;;;;;;;;;;5052978;28;20071;-67
2022/11/01 04:27:51;;;;;;;42.85;22.58;;;;;;;;;;5052754;28;20136;-67
2022/11/01 04:30:16;;;;;;;43.65;23.58;;;;;;;;;;5052666;28;20147;-68
2022/11/01 04:32:43;;;;;;;45.70;24.05;;;;;;;;;;5052697;28;20021;-67
2022/11/01 04:35:11;;;;;;;50.33;25.73;;;;;;;;;;5053000;28;20106;-67
2022/11/01 04:37:37;;;;;;;45.33;24.95;;;;;;;;;;5052797;28;20024;-68
2022/11/01 04:40:03;;;;;;;47.25;25.70;;;;;;;;;;5052759;28;20025;-67
2022/11/01 04:42:28;;;;;;;48.63;25.67;;;;;;;;;;5052932;28;20033;-67
2022/11/01 04:44:54;;;;;;;52.47;26.77;;;;;;;;;;5052707;28;20386;-67
2022/11/01 04:47:19;;;;;;;49.95;25.42;;;;;;;;;;5052610;28;20117;-67
2022/11/01 04:49:45;;;;;;;54.95;27.58;;;;;;;;;;5052740;28;20036;-67
2022/11/01 04:52:10;;;;;;;49.35;26.48;;;;;;;;;;5052804;28;20122;-67
2022/11/01 04:54:35;;;;;;;44.15;25.02;;;;;;;;;;5052729;28;20083;-67
2022/11/01 04:57:01;;;;;;;45.53;25.90;;;;;;;;;;5052621;28;20033;-67
2022/11/01 04:59:26;;;;;;;44.38;25.73;;;;;;;;;;5052050;28;20028;-67
2022/11/01 05:01:52;;;;;;;45.38;24.88;;;;;;;;;;5052596;28;20025;-67
2022/11/01 05:04:17;;;;;;;48.08;24.52;;;;;;;;;;5052611;28;20025;-76
2022/11/01 05:06:43;;;;;;;64.13;22.50;;;;;;;;;;5052303;28;20055;-67
2022/11/01 05:09:08;;;;;;;45.03;24.02;;;;;;;;;;5052402;28;20029;-67
2022/11/01 05:11:34;;;;;;;40.15;21.98;;;;;;;;;;5052590;28;20427;-67
2022/11/01 05:13:59;;;;;;;46.60;22.83;;;;;;;;;;5052341;28;20140;-67
2022/11/01 05:16:25;;;;;;;44.55;22.92;;;;;;;;;;5052457;28;20025;-67
2022/11/01 05:18:50;;;;;;;57.42;24.13;;;;;;;;;;5052461;28;20025;-68
2022/11/01 05:21:16;;;;;;;72.22;26.45;;;;;;;;;;5052427;28;20025;-67
2022/11/01 05:23:41;;;;;;;53.45;24.15;;;;;;;;;;5052170;28;20443;-67
2022/11/01 05:26:06;;;;;;;49.83;24.58;;;;;;;;;;5052483;28;20025;-67
2022/11/01 05:28:33;;;;;;;61.50;25.23;;;;;;;;;;5051787;28;20039;-67
2022/11/01 05:30:58;;;;;;;119.95;25.08;;;;;;;;;;5052305;28;20390;-67
2022/11/01 05:33:25;;;;;;;87.65;25.02;;;;;;;;;;5052289;28;20128;-67
2022/11/01 05:35:50;;;;;;;99.72;24.20;;;;;;;;;;5052292;28;20029;-67
2022/11/01 05:38:16;;;;;;;103.50;24.60;;;;;;;;;;5051012;28;20536;-67
2022/11/01 05:40:41;;;;;;;80.95;26.45;;;;;;;;;;5052254;28;20346;-73
2022/11/01 05:43:06;;;;;;;71.57;24.50;;;;;;;;;;5052115;28;20029;-67
2022/11/01 05:45:32;;;;;;;45.30;22.23;;;;;;;;;;5052064;28;20025;-67
2022/11/01 05:48:02;;;;;;;38.53;21.95;;;;;;;;;;5051759;28;20455;-67
2022/11/01 05:50:27;;;;;;;43.95;24.33;;;;;;;;;;5052279;28;20381;-67
2022/11/01 05:52:53;;;;;;;40.42;25.90;;;;;;;;;;5052134;28;20025;-68
2022/11/01 05:55:18;;;;;;;41.47;24.05;;;;;;;;;;5052115;28;20358;-67
2022/11/01 05:57:44;;;;;;;45.03;25.73;;;;;;;;;;5051776;28;20113;-67
2022/11/01 06:00:10;;;;;;;43.92;27.23;;;;;;;;;;5051895;28;20032;-67
2022/11/01 06:02:35;;;;;;;39.22;22.48;;;;;;;;;;5052089;28;20025;-67
2022/11/01 06:05:01;;;;;;;45.13;26.98;;;;;;;;;;5051990;28;20078;-67
2022/11/01 06:07:27;;;;;;;45.55;27.27;;;;;;;;;;5051882;28;20032;-67
2022/11/01 06:09:52;;;;;;;46.10;26.58;;;;;;;;;;5051987;28;20083;-77
2022/11/01 06:12:18;;;;;;;45.20;25.70;;;;;;;;;;5054646;28;20044;-67
2022/11/01 06:14:43;;;;;;;43.65;25.92;;;;;;;;;;5055533;28;20087;-67
2022/11/01 06:17:12;;;;;;;37.45;20.05;;;;;;;;;;5055676;28;20032;-67
2022/11/01 06:19:37;;;;;;;47.42;25.73;;;;;;;;;;5055315;28;20055;-67
2022/11/01 06:22:03;;;;;;;39.15;23.38;;;;;;;;;;5055316;28;20053;-67
2022/11/01 06:24:28;;;;;;;49.10;27.17;;;;;;;;;;5055346;28;20045;-67
2022/11/01 06:26:54;;;;;;;40.10;22.17;;;;;;;;;;5054987;28;20482;-67
2022/11/01 06:29:19;;;;;;;45.55;26.20;;;;;;;;;;5054973;28;20036;-67
2022/11/01 06:31:45;;;;;;;48.45;27.38;;;;;;;;;;5054007;28;20029;-67
2022/11/01 06:34:10;;;;;;;39.92;24.27;;;;;;;;;;5055046;28;20485;-67
2022/11/01 06:36:36;;;;;;;47.40;27.13;;;;;;;;;;5055187;28;20025;-67
2022/11/01 06:39:02;;;;;;;37.75;21.92;;;;;;;;;;5054931;28;20033;-67
2022/11/01 06:41:27;;;;;;;45.90;26.98;;;;;;;;;;5054765;28;20037;-67
2022/11/01 06:43:53;;;;;;;46.47;27.27;;;;;;;;;;5055024;28;20029;-67
2022/11/01 06:46:18;;;;;;;53.78;26.60;;;;;;;;;;5054497;28;20102;-67
2022/11/01 06:48:47;;;;;;;41.65;25.67;;;;;;;;;;5054713;28;20052;-67
2022/11/01 06:51:13;;;;;;;42.65;22.23;;;;;;;;;;5054875;28;20023;-67
2022/11/01 06:53:38;;;;;;;44.88;23.45;;;;;;;;;;5054698;28;20029;-67
2022/11/01 06:56:04;;;;;;;41.33;22.42;;;;;;;;;;5054315;28;20032;-67
2022/11/01 06:58:29;;;;;;;35.63;19.38;;;;;;;;;;5054506;28;20073;-67
2022/11/01 07:00:55;;;;;;;39.58;21.73;;;;;;;;;;5054352;28;20029;-66
2022/11/01 07:03:20;;;;;;;45.33;25.52;;;;;;;;;;5054452;28;20033;-67
2022/11/01 07:05:48;;;;;;;45.78;26.55;;;;;;;;;;5054359;28;20416;-67
2022/11/01 07:08:13;;;;;;;38.15;19.63;;;;;;;;;;5053953;28;20111;-67
2022/11/01 07:10:41;;;;;;;46.38;25.10;;;;;;;;;;5053948;28;20155;-67
2022/11/01 07:13:10;;;;;;;49.33;26.55;;;;;;;;;;5054368;28;20040;-67
2022/11/01 07:15:36;;;;;;;43.20;24.42;;;;;;;;;;5054102;28;20021;-67
2022/11/01 07:18:03;;;;;;;34.08;18.25;;;;;;;;;;5054112;28;20043;-66
2022/11/01 07:20:30;;;;;;;46.67;25.83;;;;;;;;;;5052903;28;20107;-67
2022/11/01 07:23:01;;;;;;;43.25;23.95;;;;;;;;;;5053952;28;20059;-67
2022/11/01 07:25:27;;;;;;;40.47;22.90;;;;;;;;;;5053681;28;20385;-67
2022/11/01 07:27:53;;;;;;;45.13;25.88;;;;;;;;;;5053486;28;20029;-67
2022/11/01 07:30:19;;;;;;;36.88;20.23;;;;;;;;;;5053727;28;20031;-67
2022/11/01 07:32:44;;;;;;;44.72;25.98;;;;;;;;;;5054051;28;20043;-67
2022/11/01 07:35:10;;;;;;;46.83;25.27;;;;;;;;;;5053940;28;20021;-67
2022/11/01 07:37:35;;;;;;;46.47;24.90;;;;;;;;;;5053849;28;20037;-67
2022/11/01 07:40:04;;;;;;;46.00;25.60;;;;;;;;;;5053656;28;20033;-67
2022/11/01 07:42:30;;;;;;;43.17;24.90;;;;;;;;;;5053929;28;20075;-67
2022/11/01 07:44:55;;;;;;;47.33;25.13;;;;;;;;;;5053780;28;20422;-67
2022/11/01 07:47:21;;;;;;;36.90;22.38;;;;;;;;;;5053212;28;20076;-67
2022/11/01 07:49:46;;;;;;;35.08;20.70;;;;;;;;;;5053775;28;20052;-67
2022/11/01 07:52:13;;;;;;;42.17;23.90;;;;;;;;;;5053639;28;20493;-68
2022/11/01 07:54:38;;;;;;;47.42;26.60;;;;;;;;;;5053348;28;20075;-67
2022/11/01 07:57:04;;;;;;;54.42;27.38;;;;;;;;;;5053589;28;20029;-67
2022/11/01 07:59:30;;;;;;;42.75;23.73;;;;;;;;;;5053446;28;20109;-74
2022/11/01 08:01:55;;;;;;;51.35;27.02;;;;;;;;;;5052801;28;20047;-67
2022/11/01 08:04:21;;;;;;;44.78;22.52;;;;;;;;;;5053128;28;20108;-67
2022/11/01 08:06:46;;;;;;;48.60;23.50;;;;;;;;;;5052941;28;20127;-67
2022/11/01 08:09:12;;;;;;;49.65;26.95;;;;;;;;;;5053063;28;20049;-67
2022/11/01 08:11:37;;;;;;;32.00;16.95;;;;;;;;;;5052894;28;20029;-67
2022/11/01 08:14:03;;;;;;;44.08;24.00;;;;;;;;;;5053259;28;20021;-73
2022/11/01 08:16:28;;;;;;;43.95;22.98;;;;;;;;;;5052876;28;20033;-68
2022/11/01 08:18:53;;;;;;;52.65;27.15;;;;;;;;;;5053223;28;20439;-67
2022/11/01 08:21:19;;;;;;;49.95;26.75;;;;;;;;;;5052789;28;20041;-67
2022/11/01 08:23:45;;;;;;;50.28;28.00;;;;;;;;;;5052281;28;20032;-67
2022/11/01 08:26:11;;;;;;;41.38;25.92;;;;;;;;;;5052344;28;20104;-66
2022/11/01 08:28:37;;;;;;;30.90;18.77;;;;;;;;;;5052256;28;20367;-67
2022/11/01 08:31:09;;;;;;;50.05;28.35;;;;;;;;;;5052975;28;20017;-67
2022/11/01 08:33:34;;;;;;;34.03;19.13;;;;;;;;;;5051887;28;20021;-67
2022/11/01 08:36:01;;;;;;;45.63;23.23;;;;;;;;;;5052428;28;20029;-68
2022/11/01 08:38:27;;;;;;;52.67;27.13;;;;;;;;;;5052199;28;20020;-68
2022/11/01 08:40:53;;;;;;;46.47;25.73;;;;;;;;;;5049865;28;20386;-75
2022/11/01 08:43:19;;;;;;;54.97;31.17;;;;;;;;;;5052116;28;20016;-68
2022/11/01 08:45:45;;;;;;;50.70;27.92;;;;;;;;;;5051726;28;20064;-69
2022/11/01 08:48:11;;;;;;;47.65;28.73;;;;;;;;;;5052292;28;20076;-67
2022/11/01 08:50:37;;;;;;;49.22;27.15;;;;;;;;;;5052393;28;20029;-68
2022/11/01 08:53:10;;;;;;;35.90;20.70;;;;;;;;;;5051194;28;20029;-69
2022/11/01 08:55:36;;;;;;;45.05;26.73;;;;;;;;;;5052517;28;20033;-68
2022/11/01 08:58:02;;;;;;;45.20;26.25;;;;;;;;;;5052083;28;20485;-67
2022/11/01 09:00:28;;;;;;;41.80;24.55;;;;;;;;;;5052267;28;20033;-67
2022/11/01 09:02:54;;;;;;;39.88;23.70;;;;;;;;;;5052496;28;20030;-67
2022/11/01 09:05:20;;;;;;;43.58;24.50;;;;;;;;;;5052350;28;20029;-67
2022/11/01 09:07:45;;;;;;;38.17;24.08;;;;;;;;;;5052107;28;20120;-78
2022/11/01 09:10:11;;;;;;;39.85;23.48;;;;;;;;;;5052251;28;20104;-67
2022/11/01 09:12:37;;;;;;;38.65;23.02;;;;;;;;;;5052689;28;20467;-67
2022/11/01 09:15:04;;;;;;;38.40;24.60;;;;;;;;;;5052511;28;20021;-68
2022/11/01 09:17:29;;;;;;;39.47;22.33;;;;;;;;;;5052055;28;20051;-67
2022/11/01 09:19:55;;;;;;;38.47;24.33;;;;;;;;;;5052211;28;20462;-67
2022/11/01 09:22:21;;;;;;;35.85;23.10;;;;;;;;;;5052155;28;20604;-67
2022/11/01 09:24:46;;;;;;;37.58;23.23;;;;;;;;;;5052155;28;20028;-68
2022/11/01 09:27:12;;;;;;;35.17;22.63;;;;;;;;;;5049898;28;20390;-68
2022/11/01 09:29:37;;;;;;;43.63;24.55;;;;;;;;;;5032296;28;20065;-67
2022/11/01 09:32:03;;;;;;;46.10;24.08;;;;;;;;;;5032387;28;20030;-67
2022/11/01 09:34:31;;;;;;;37.33;22.17;;;;;;;;;;5032591;28;20025;-67
2022/11/01 09:36:56;;;;;;;34.53;22.27;;;;;;;;;;5032063;28;20186;-67
2022/11/01 09:39:22;;;;;;;38.30;23.98;;;;;;;;;;5032266;28;20037;-67
2022/11/01 09:41:55;;;;;;;41.75;25.02;;;;;;;;;;5032380;28;20029;-68
2022/11/01 09:44:31;;;;;;;41.47;24.40;;;;;;;;;;5032095;28;20029;-73
2022/11/01 09:47:04;;;;;;;39.13;24.77;;;;;;;;;;5034501;28;20115;-68
2022/11/01 09:49:32;;;;;;;37.15;24.88;;;;;;;;;;5035615;28;20104;-73
2022/11/01 09:51:58;;;;;;;38.15;22.20;;;;;;;;;;5035863;28;20029;-68
2022/11/01 09:54:25;;;;;;;41.65;24.27;;;;;;;;;;5035898;28;20025;-76
2022/11/01 09:57:01;;;;;;;41.95;23.23;;;;;;;;;;5035780;28;20030;-68
2022/11/01 09:59:48;;;;;;;40.83;23.35;;;;;;;;;;5035807;28;20029;-72
2022/11/01 10:02:41;;;;;;;35.88;21.15;;;;;;;;;;5035670;28;20021;-68
2022/11/01 10:05:27;;;;;;;39.15;22.95;;;;;;;;;;5035490;28;20104;-68
2022/11/01 10:08:17;;;;;;;34.28;21.30;;;;;;;;;;5035627;28;20037;-67
2022/11/01 10:10:47;;;;;;;39.13;23.10;;;;;;;;;;5035734;28;20022;-68
2022/11/01 10:13:31;;;;;;;37.33;21.50;;;;;;;;;;5052884;28;20039;-67
2022/11/01 10:16:18;;;;;;;33.45;22.15;;;;;;;;;;5055522;28;20029;-68
2022/11/01 10:19:14;;;;;;;40.90;21.92;;;;;;;;;;5055111;28;20032;-67
2022/11/01 10:21:45;;;;;;;32.38;19.80;;;;;;;;;;5055348;28;20099;-67
2022/11/01 10:24:19;;;;;;;33.55;19.52;;;;;;;;;;5055232;28;20029;-69
2022/11/01 10:26:47;;;;;;;38.72;20.90;;;;;;;;;;5055356;28;20423;-70
2022/11/01 10:29:20;;;;;;;32.42;19.67;;;;;;;;;;5054924;28;20067;-68
2022/11/01 10:31:50;;;;;;;30.15;19.95;;;;;;;;;;5055013;28;20098;-74
2022/11/01 10:34:33;;;;;;;33.50;17.70;;;;;;;;;;5054421;28;20129;-76
2022/11/01 10:37:24;;;;;;;29.55;19.20;;;;;;;;;;5055091;28;20183;-69
2022/11/01 10:39:56;;;;;;;28.25;18.73;;;;;;;;;;5055055;28;20466;-68
2022/11/01 10:42:21;;;;;;;24.17;16.90;;;;;;;;;;5054793;28;20031;-68
2022/11/01 10:44:54;;;;;;;30.80;18.70;;;;;;;;;;5053495;28;20033;-74
2022/11/01 10:47:22;;;;;;;30.60;18.50;;;;;;;;;;5053689;28;20498;-67
2022/11/01 10:50:17;;;;;;;28.38;18.23;;;;;;;;;;5054532;28;20029;-67
2022/11/01 10:52:42;;;;;;;38.60;19.65;;;;;;;;;;5053669;28;20037;-73
2022/11/01 10:55:17;;;;;;;28.17;18.88;;;;;;;;;;5054592;28;20094;-68
2022/11/01 10:57:51;;;;;;;33.25;19.85;;;;;;;;;;5054362;28;20079;-68
2022/11/01 11:00:19;;;;;;;36.95;20.20;;;;;;;;;;5054576;28;20078;-76
2022/11/01 11:03:29;;;;;;;30.92;20.27;;;;;;;;;;5054386;28;20474;-68
2022/11/01 11:05:58;;;;;;;32.92;20.05;;;;;;;;;;5054517;28;20028;-68
2022/11/01 11:08:24;;;;;;;35.17;19.90;;;;;;;;;;5053900;28;20072;-68
2022/11/01 11:10:50;;;;;;;33.58;20.40;;;;;;;;;;5054250;28;20075;-66
2022/11/01 11:13:20;;;;;;;33.20;20.50;;;;;;;;;;5054113;28;20096;-68
2022/11/01 11:15:59;;;;;;;31.90;20.23;;;;;;;;;;5054292;28;20025;-67
2022/11/01 11:18:32;;;;;;;38.80;21.10;;;;;;;;;;5054288;28;20417;-66
2022/11/01 11:21:03;;;;;;;32.45;20.38;;;;;;;;;;5054207;28;20021;-67
2022/11/01 11:23:31;;;;;;;;;;;;;;;;;;5054506;28;20021;-66
2022/11/01 11:26:18;;;;;;;31.10;19.95;;;;;;;;;;5053864;28;19920;-67
2022/11/01 11:28:51;;;;;;;37.33;22.65;;;;;;;;;;5038769;28;20059;-72
2022/11/01 11:31:22;;;;;;;31.05;20.15;;;;;;;;;;5033667;28;20022;-67
2022/11/01 11:34:13;;;;;;;33.10;21.05;;;;;;;;;;5034114;28;20030;-67
2022/11/01 11:36:44;;;;;;;34.10;19.55;;;;;;;;;;5033469;28;20124;-67
2022/11/01 11:39:28;;;;;;;35.35;22.45;;;;;;;;;;5032620;28;20029;-67
2022/11/01 11:41:54;;;;;;;31.73;19.23;;;;;;;;;;5033706;28;20025;-67
2022/11/01 11:44:52;;;;;;;37.95;23.33;;;;;;;;;;5033514;28;20108;-69
2022/11/01 11:47:18;;;;;;;37.08;21.80;;;;;;;;;;5032466;28;20044;-68
2022/11/01 11:49:44;;;;;;;40.38;23.58;;;;;;;;;;5033548;28;20049;-67
2022/11/01 11:52:18;;;;;;;39.80;22.73;;;;;;;;;;5033735;28;20058;-67
2022/11/01 11:54:44;;;;;;;32.70;20.95;;;;;;;;;;5033705;28;20026;-77
2022/11/01 11:57:14;;;;;;;40.45;23.33;;;;;;;;;;5033865;28;20052;-67
2022/11/01 11:59:41;;;;;;;35.93;22.20;;;;;;;;;;5033314;28;20055;-67
2022/11/01 12:02:17;;;;;;;38.08;21.58;;;;;;;;;;5033501;28;20301;-68
2022/11/01 12:04:52;;;;;;;41.78;23.27;;;;;;;;;;5033459;28;20028;-68
2022/11/01 12:07:30;;;;;;;31.20;19.63;;;;;;;;;;5033245;28;20035;-67
2022/11/01 12:10:01;;;;;;;33.75;21.23;;;;;;;;;;5032473;28;20034;-69
2022/11/01 12:12:32;;;;;;;36.78;21.95;;;;;;;;;;5033187;28;20029;-68
2022/11/01 12:14:59;;;;;;;34.47;22.00;;;;;;;;;;5032955;28;20458;-74
2022/11/01 12:17:24;;;;;;;35.42;22.08;;;;;;;;;;5035985;28;20049;-70
2022/11/01 12:19:58;;;;;;;36.10;22.23;;;;;;;;;;5041930;28;20404;-68
2022/11/01 12:22:26;;;;;;;33.20;21.15;;;;;;;;;;5033183;28;20021;-69
2022/11/01 12:24:53;;;;;;;35.17;21.77;;;;;;;;;;5032732;28;20033;-76
2022/11/01 12:27:24;;;;;;;32.47;20.65;;;;;;;;;;5035504;28;20017;-76
2022/11/01 12:29:54;;;;;;;35.38;21.70;;;;;;;;;;5045876;28;20397;-70
2022/11/01 12:32:26;;;;;;;35.58;21.75;;;;;;;;;;5052692;28;20033;-67
2022/11/01 12:34:56;;;;;;;36.67;21.85;;;;;;;;;;5052644;28;20024;-69
2022/11/01 12:37:31;;;;;;;35.78;22.30;;;;;;;;;;5052612;28;20502;-71
2022/11/01 12:40:12;;;;;;;35.22;21.30;;;;;;;;;;5052464;28;20390;-68
2022/11/01 12:42:48;;;;;;;37.83;20.90;;;;;;;;;;5052620;28;20020;-68
2022/11/01 12:45:32;;;;;;;36.35;20.50;;;;;;;;;;5052037;28;20047;-69
2022/11/01 12:48:04;;;;;;;37.25;20.75;;;;;;;;;;5052435;28;20055;-68
2022/11/01 12:51:04;;;;;;;33.15;20.63;;;;;;;;;;5052573;28;20485;-77
2022/11/01 12:53:33;;;;;;;34.70;21.08;;;;;;;;;;5030261;28;20033;-67
2022/11/01 12:55:59;;;;;;;33.22;20.27;;;;;;;;;;5030221;28;20437;-67
2022/11/01 12:58:25;;;;;;;31.45;20.42;;;;;;;;;;5030161;28;20049;-68
2022/11/01 13:01:06;;;;;;;31.58;19.20;;;;;;;;;;5030366;28;20056;-67
2022/11/01 13:03:44;;;;;;;33.05;21.02;;;;;;;;;;5030211;28;20202;-67
2022/11/01 13:06:15;;;;;;;34.78;19.50;;;;;;;;;;5029958;28;20545;-76
2022/11/01 13:09:15;;;;;;;33.20;20.80;;;;;;;;;;5030115;28;20519;-67
2022/11/01 13:11:56;;;;;;;35.07;21.27;;;;;;;;;;5030231;28;20124;-67
2022/11/01 13:14:51;;;;;;;31.17;21.25;;;;;;;;;;5029996;28;20033;-68
2022/11/01 13:17:43;;;;;;;31.55;20.17;;;;;;;;;;5030098;28;20492;-67
2022/11/01 13:20:24;;;;;;;32.88;21.42;;;;;;;;;;5031398;28;20038;-71
2022/11/01 13:23:05;;;;;;;36.95;21.30;;;;;;;;;;5034245;28;20048;-66
2022/11/01 13:25:43;;;;;;;32.40;20.90;;;;;;;;;;5034088;28;20032;-67
2022/11/01 13:28:20;;;;;;;28.55;20.13;;;;;;;;;;5033941;28;20502;-68
2022/11/01 13:31:05;;;;;;;29.75;19.63;;;;;;;;;;5036322;28;20526;-66
2022/11/01 13:33:52;;;;;;;31.50;19.83;;;;;;;;;;5036073;28;20060;-67
2022/11/01 13:36:35;;;;;;;37.80;20.65;;;;;;;;;;5036350;28;20025;-67
2022/11/01 13:39:37;;;;;;;30.55;19.52;;;;;;;;;;5036988;28;20064;-69
2022/11/01 13:42:10;;;;;;;36.40;19.08;;;;;;;;;;5035966;28;20136;-67
2022/11/01 13:44:43;;;;;;;29.33;18.58;;;;;;;;;;5035993;28;20029;-67
2022/11/01 13:47:33;;;;;;;31.75;19.08;;;;;;;;;;5036126;28;20051;-66
2022/11/01 13:50:20;;;;;;;32.33;19.98;;;;;;;;;;5035873;28;20116;-67
2022/11/01 13:53:01;;;;;;;32.42;20.23;;;;;;;;;;5035478;28;20029;-66
2022/11/01 13:55:44;;;;;;;32.92;20.95;;;;;;;;;;5035720;28;20030;-67
2022/11/01 13:58:17;;;;;;;31.73;20.27;;;;;;;;;;5042415;28;20038;-67
2022/11/01 14:00:48;;;;;;;29.27;18.73;;;;;;;;;;5050353;28;20052;-66
2022/11/01 14:03:28;;;;;;;27.88;19.05;;;;;;;;;;5055255;28;20029;-68
2022/11/01 14:06:06;;;;;;;36.83;21.05;;;;;;;;;;5055336;28;20040;-66
2022/11/01 14:08:41;;;;;;;32.97;20.85;;;;;;;;;;5055122;28;20082;-71
2022/11/01 14:11:11;;;;;;;37.00;20.98;;;;;;;;;;5055100;28;20036;-65
2022/11/01 14:13:46;;;;;;;31.67;20.30;;;;;;;;;;5055229;28;20025;-66
2022/11/01 14:16:14;;;;;;;29.67;20.40;;;;;;;;;;5055061;28;20029;-65
2022/11/01 14:19:01;;;;;;;31.88;21.55;;;;;;;;;;5054937;28;20073;-66
2022/11/01 14:21:30;;;;;;;31.58;20.15;;;;;;;;;;5054254;28;20498;-68
2022/11/01 14:24:04;;;;;;;33.90;20.07;;;;;;;;;;5054879;28;20397;-66
2022/11/01 14:26:35;;;;;;;31.05;17.98;;;;;;;;;;5054418;28;20029;-66
2022/11/01 14:29:01;;;;;;;31.45;18.92;;;;;;;;;;5054484;28;20037;-66
2022/11/01 14:31:32;;;;;;;28.10;18.30;;;;;;;;;;5053721;28;20483;-66
2022/11/01 14:34:01;;;;;;;29.30;18.70;;;;;;;;;;5054884;28;20475;-67
2022/11/01 14:36:29;;;;;;;29.58;19.15;;;;;;;;;;5054775;28;20467;-66
2022/11/01 14:38:59;;;;;;;31.17;18.70;;;;;;;;;;5054661;28;20108;-65
2022/11/01 14:41:29;;;;;;;33.20;18.33;;;;;;;;;;5054413;28;20029;-67
2022/11/01 14:44:02;;;;;;;26.45;18.75;;;;;;;;;;5054607;28;20056;-67